sensor_id;sensor_type;location;lat;lon;timestamp;P1;durP1;ratioP1;P2;durP2;ratioP2
51082;SDS011;37131;42.694;23.350;2022-10-16T00:01:28;4.95;;;2.20;;
51082;SDS011;37131;42.694;23.350;2022-10-16T00:03:55;5.50;;;2.10;;
51082;SDS011;37131;42.694;23.350;2022-10-16T00:06:22;6.25;;;1.98;;
51082;SDS011;37131;42.694;23.350;2022-10-16T00:08:48;3.97;;;1.67;;
51082;SDS011;37131;42.694;23.350;2022-10-16T00:13:39;3.88;;;2.25;;
51082;SDS011;37131;42.694;23.350;2022-10-16T00:16:06;5.10;;;2.25;;
51082;SDS011;37131;42.694;23.350;2022-10-16T00:18:32;3.95;;;1.95;;
51082;SDS011;37131;42.694;23.350;2022-10-16T00:21:05;4.85;;;2.08;;
51082;SDS011;37131;42.694;23.350;2022-10-16T00:23:32;4.35;;;1.88;;
51082;SDS011;37131;42.694;23.350;2022-10-16T00:26:00;3.28;;;1.75;;
51082;SDS011;37131;42.694;23.350;2022-10-16T00:28:27;8.77;;;2.13;;
51082;SDS011;37131;42.694;23.350;2022-10-16T00:30:53;4.55;;;1.75;;
51082;SDS011;37131;42.694;23.350;2022-10-16T00:33:18;3.88;;;1.70;;
51082;SDS011;37131;42.694;23.350;2022-10-16T00:35:44;5.18;;;2.78;;
51082;SDS011;37131;42.694;23.350;2022-10-16T00:38:10;3.65;;;1.52;;
51082;SDS011;37131;42.694;23.350;2022-10-16T00:40:35;8.90;;;2.35;;
51082;SDS011;37131;42.694;23.350;2022-10-16T00:43:01;5.93;;;2.10;;
51082;SDS011;37131;42.694;23.350;2022-10-16T00:45:29;6.28;;;2.65;;
51082;SDS011;37131;42.694;23.350;2022-10-16T00:47:55;6.93;;;2.08;;
51082;SDS011;37131;42.694;23.350;2022-10-16T00:52:53;8.15;;;2.15;;
51082;SDS011;37131;42.694;23.350;2022-10-16T00:55:19;7.20;;;1.98;;
51082;SDS011;37131;42.694;23.350;2022-10-16T00:57:45;13.27;;;2.38;;
51082;SDS011;37131;42.694;23.350;2022-10-16T01:00:12;4.63;;;2.53;;
51082;SDS011;37131;42.694;23.350;2022-10-16T01:02:41;5.32;;;2.22;;
51082;SDS011;37131;42.694;23.350;2022-10-16T01:05:06;3.95;;;2.10;;
51082;SDS011;37131;42.694;23.350;2022-10-16T01:07:41;7.45;;;2.53;;
51082;SDS011;37131;42.694;23.350;2022-10-16T01:13:01;5.03;;;2.65;;
51082;SDS011;37131;42.694;23.350;2022-10-16T01:17:58;5.57;;;2.30;;
51082;SDS011;37131;42.694;23.350;2022-10-16T01:20:30;5.63;;;2.08;;
51082;SDS011;37131;42.694;23.350;2022-10-16T01:28:21;14.07;;;2.60;;
51082;SDS011;37131;42.694;23.350;2022-10-16T01:30:53;7.70;;;2.28;;
51082;SDS011;37131;42.694;23.350;2022-10-16T01:33:24;5.13;;;2.47;;
51082;SDS011;37131;42.694;23.350;2022-10-16T01:35:56;5.75;;;2.35;;
51082;SDS011;37131;42.694;23.350;2022-10-16T01:38:29;6.05;;;2.80;;
51082;SDS011;37131;42.694;23.350;2022-10-16T01:41:00;5.85;;;2.38;;
51082;SDS011;37131;42.694;23.350;2022-10-16T01:43:33;6.55;;;2.72;;
51082;SDS011;37131;42.694;23.350;2022-10-16T01:46:03;7.38;;;2.35;;
51082;SDS011;37131;42.694;23.350;2022-10-16T01:48:30;9.80;;;2.53;;
51082;SDS011;37131;42.694;23.350;2022-10-16T01:51:08;6.70;;;2.58;;
51082;SDS011;37131;42.694;23.350;2022-10-16T01:53:36;4.95;;;2.00;;
51082;SDS011;37131;42.694;23.350;2022-10-16T01:56:04;4.35;;;1.88;;
51082;SDS011;37131;42.694;23.350;2022-10-16T01:58:35;5.57;;;1.95;;
51082;SDS011;37131;42.694;23.350;2022-10-16T02:01:05;6.85;;;1.83;;
51082;SDS011;37131;42.694;23.350;2022-10-16T02:03:35;8.88;;;2.35;;
51082;SDS011;37131;42.694;23.350;2022-10-16T02:06:04;5.28;;;1.90;;
51082;SDS011;37131;42.694;23.350;2022-10-16T02:08:29;7.68;;;1.75;;
51082;SDS011;37131;42.694;23.350;2022-10-16T02:10:56;4.15;;;1.55;;
51082;SDS011;37131;42.694;23.350;2022-10-16T02:13:23;3.05;;;1.42;;
51082;SDS011;37131;42.694;23.350;2022-10-16T02:15:54;5.00;;;1.88;;
51082;SDS011;37131;42.694;23.350;2022-10-16T02:18:20;6.13;;;1.80;;
51082;SDS011;37131;42.694;23.350;2022-10-16T02:20:48;4.57;;;2.40;;
51082;SDS011;37131;42.694;23.350;2022-10-16T02:23:19;4.82;;;1.95;;
51082;SDS011;37131;42.694;23.350;2022-10-16T02:25:52;3.70;;;1.65;;
51082;SDS011;37131;42.694;23.350;2022-10-16T02:28:20;4.57;;;1.33;;
51082;SDS011;37131;42.694;23.350;2022-10-16T02:31:01;4.85;;;1.77;;
51082;SDS011;37131;42.694;23.350;2022-10-16T02:33:30;2.47;;;1.30;;
51082;SDS011;37131;42.694;23.350;2022-10-16T02:35:58;5.80;;;1.95;;
51082;SDS011;37131;42.694;23.350;2022-10-16T02:38:24;4.53;;;1.50;;
51082;SDS011;37131;42.694;23.350;2022-10-16T02:40:50;3.22;;;1.63;;
51082;SDS011;37131;42.694;23.350;2022-10-16T02:43:16;5.95;;;2.13;;
51082;SDS011;37131;42.694;23.350;2022-10-16T02:45:42;4.75;;;1.85;;
51082;SDS011;37131;42.694;23.350;2022-10-16T02:48:07;8.00;;;1.58;;
51082;SDS011;37131;42.694;23.350;2022-10-16T02:50:33;5.30;;;1.25;;
51082;SDS011;37131;42.694;23.350;2022-10-16T02:52:58;3.05;;;1.30;;
51082;SDS011;37131;42.694;23.350;2022-10-16T02:55:24;5.47;;;1.67;;
51082;SDS011;37131;42.694;23.350;2022-10-16T02:57:49;3.50;;;1.52;;
51082;SDS011;37131;42.694;23.350;2022-10-16T03:00:15;4.43;;;1.25;;
51082;SDS011;37131;42.694;23.350;2022-10-16T03:02:42;3.10;;;1.33;;
51082;SDS011;37131;42.694;23.350;2022-10-16T03:05:08;3.83;;;1.73;;
51082;SDS011;37131;42.694;23.350;2022-10-16T03:07:34;5.22;;;1.52;;
51082;SDS011;37131;42.694;23.350;2022-10-16T03:09:59;5.10;;;1.55;;
51082;SDS011;37131;42.694;23.350;2022-10-16T03:12:28;4.20;;;1.40;;
51082;SDS011;37131;42.694;23.350;2022-10-16T03:14:54;5.82;;;1.50;;
51082;SDS011;37131;42.694;23.350;2022-10-16T03:17:21;4.30;;;1.48;;
51082;SDS011;37131;42.694;23.350;2022-10-16T03:19:47;4.60;;;1.77;;
51082;SDS011;37131;42.694;23.350;2022-10-16T03:22:12;6.78;;;1.63;;
51082;SDS011;37131;42.694;23.350;2022-10-16T03:24:38;4.07;;;1.70;;
51082;SDS011;37131;42.694;23.350;2022-10-16T03:27:03;7.07;;;1.65;;
51082;SDS011;37131;42.694;23.350;2022-10-16T03:29:28;3.78;;;1.67;;
51082;SDS011;37131;42.694;23.350;2022-10-16T03:31:54;5.70;;;1.42;;
51082;SDS011;37131;42.694;23.350;2022-10-16T03:34:21;5.63;;;1.92;;
51082;SDS011;37131;42.694;23.350;2022-10-16T03:36:46;5.32;;;1.98;;
51082;SDS011;37131;42.694;23.350;2022-10-16T03:39:11;3.50;;;1.85;;
51082;SDS011;37131;42.694;23.350;2022-10-16T03:41:37;4.10;;;1.58;;
51082;SDS011;37131;42.694;23.350;2022-10-16T03:44:02;4.45;;;1.55;;
51082;SDS011;37131;42.694;23.350;2022-10-16T03:46:28;6.22;;;1.50;;
51082;SDS011;37131;42.694;23.350;2022-10-16T03:48:54;3.60;;;1.67;;
51082;SDS011;37131;42.694;23.350;2022-10-16T03:51:20;4.00;;;1.70;;
51082;SDS011;37131;42.694;23.350;2022-10-16T03:53:45;7.97;;;2.15;;
51082;SDS011;37131;42.694;23.350;2022-10-16T03:56:11;3.13;;;1.60;;
51082;SDS011;37131;42.694;23.350;2022-10-16T03:58:36;2.72;;;1.65;;
51082;SDS011;37131;42.694;23.350;2022-10-16T04:01:02;5.63;;;2.25;;
51082;SDS011;37131;42.694;23.350;2022-10-16T04:03:27;4.80;;;1.73;;
51082;SDS011;37131;42.694;23.350;2022-10-16T04:05:53;4.03;;;1.52;;
51082;SDS011;37131;42.694;23.350;2022-10-16T04:08:18;4.88;;;1.40;;
51082;SDS011;37131;42.694;23.350;2022-10-16T04:10:43;4.20;;;1.63;;
51082;SDS011;37131;42.694;23.350;2022-10-16T04:13:09;4.53;;;1.67;;
51082;SDS011;37131;42.694;23.350;2022-10-16T04:15:34;5.13;;;1.73;;
51082;SDS011;37131;42.694;23.350;2022-10-16T04:18:00;3.95;;;1.60;;
51082;SDS011;37131;42.694;23.350;2022-10-16T04:20:25;4.10;;;1.30;;
51082;SDS011;37131;42.694;23.350;2022-10-16T04:22:51;3.28;;;1.40;;
51082;SDS011;37131;42.694;23.350;2022-10-16T04:25:16;3.38;;;1.42;;
51082;SDS011;37131;42.694;23.350;2022-10-16T04:27:42;4.70;;;1.63;;
51082;SDS011;37131;42.694;23.350;2022-10-16T04:30:07;3.95;;;1.60;;
51082;SDS011;37131;42.694;23.350;2022-10-16T04:32:33;5.40;;;1.50;;
51082;SDS011;37131;42.694;23.350;2022-10-16T04:34:58;4.10;;;1.65;;
51082;SDS011;37131;42.694;23.350;2022-10-16T04:37:24;6.53;;;2.00;;
51082;SDS011;37131;42.694;23.350;2022-10-16T04:39:50;3.70;;;1.77;;
51082;SDS011;37131;42.694;23.350;2022-10-16T04:42:16;4.78;;;2.05;;
51082;SDS011;37131;42.694;23.350;2022-10-16T04:44:42;4.55;;;1.38;;
51082;SDS011;37131;42.694;23.350;2022-10-16T04:47:07;3.92;;;1.65;;
51082;SDS011;37131;42.694;23.350;2022-10-16T04:49:33;4.25;;;1.48;;
51082;SDS011;37131;42.694;23.350;2022-10-16T04:51:58;3.75;;;1.50;;
51082;SDS011;37131;42.694;23.350;2022-10-16T04:54:23;6.18;;;2.20;;
51082;SDS011;37131;42.694;23.350;2022-10-16T04:56:49;3.97;;;1.60;;
51082;SDS011;37131;42.694;23.350;2022-10-16T04:59:16;4.72;;;2.05;;
51082;SDS011;37131;42.694;23.350;2022-10-16T05:01:43;3.70;;;1.70;;
51082;SDS011;37131;42.694;23.350;2022-10-16T05:04:08;4.63;;;2.25;;
51082;SDS011;37131;42.694;23.350;2022-10-16T05:06:34;4.47;;;1.75;;
51082;SDS011;37131;42.694;23.350;2022-10-16T05:08:59;4.25;;;1.65;;
51082;SDS011;37131;42.694;23.350;2022-10-16T05:11:25;3.17;;;1.60;;
51082;SDS011;37131;42.694;23.350;2022-10-16T05:13:50;4.95;;;1.85;;
51082;SDS011;37131;42.694;23.350;2022-10-16T05:16:16;3.88;;;2.15;;
51082;SDS011;37131;42.694;23.350;2022-10-16T05:18:41;7.53;;;1.90;;
51082;SDS011;37131;42.694;23.350;2022-10-16T05:21:06;3.28;;;1.52;;
51082;SDS011;37131;42.694;23.350;2022-10-16T05:23:32;3.05;;;1.92;;
51082;SDS011;37131;42.694;23.350;2022-10-16T05:25:58;3.75;;;2.15;;
51082;SDS011;37131;42.694;23.350;2022-10-16T05:28:28;7.85;;;1.95;;
51082;SDS011;37131;42.694;23.350;2022-10-16T05:30:55;5.15;;;2.00;;
51082;SDS011;37131;42.694;23.350;2022-10-16T05:33:21;5.57;;;1.83;;
51082;SDS011;37131;42.694;23.350;2022-10-16T05:35:48;7.82;;;1.35;;
51082;SDS011;37131;42.694;23.350;2022-10-16T05:38:15;6.95;;;2.08;;
51082;SDS011;37131;42.694;23.350;2022-10-16T05:40:41;5.43;;;2.10;;
51082;SDS011;37131;42.694;23.350;2022-10-16T05:43:06;6.07;;;1.90;;
51082;SDS011;37131;42.694;23.350;2022-10-16T05:45:31;5.63;;;2.05;;
51082;SDS011;37131;42.694;23.350;2022-10-16T05:47:57;3.67;;;1.77;;
51082;SDS011;37131;42.694;23.350;2022-10-16T05:50:22;5.68;;;2.10;;
51082;SDS011;37131;42.694;23.350;2022-10-16T05:52:47;5.32;;;2.10;;
51082;SDS011;37131;42.694;23.350;2022-10-16T05:55:13;4.90;;;2.40;;
51082;SDS011;37131;42.694;23.350;2022-10-16T05:57:38;3.45;;;1.88;;
51082;SDS011;37131;42.694;23.350;2022-10-16T06:00:04;7.30;;;2.40;;
51082;SDS011;37131;42.694;23.350;2022-10-16T06:02:30;7.03;;;2.55;;
51082;SDS011;37131;42.694;23.350;2022-10-16T06:04:56;6.72;;;2.42;;
51082;SDS011;37131;42.694;23.350;2022-10-16T06:07:21;5.47;;;2.20;;
51082;SDS011;37131;42.694;23.350;2022-10-16T06:09:50;5.40;;;2.47;;
51082;SDS011;37131;42.694;23.350;2022-10-16T06:12:16;5.25;;;2.20;;
51082;SDS011;37131;42.694;23.350;2022-10-16T06:14:42;5.20;;;1.85;;
51082;SDS011;37131;42.694;23.350;2022-10-16T06:17:07;4.40;;;2.38;;
51082;SDS011;37131;42.694;23.350;2022-10-16T06:19:32;5.28;;;2.13;;
51082;SDS011;37131;42.694;23.350;2022-10-16T06:21:58;5.97;;;2.42;;
51082;SDS011;37131;42.694;23.350;2022-10-16T06:24:24;8.10;;;2.30;;
51082;SDS011;37131;42.694;23.350;2022-10-16T06:26:49;5.82;;;3.15;;
51082;SDS011;37131;42.694;23.350;2022-10-16T06:29:15;5.13;;;2.25;;
51082;SDS011;37131;42.694;23.350;2022-10-16T06:31:40;6.18;;;2.40;;
51082;SDS011;37131;42.694;23.350;2022-10-16T06:34:07;6.72;;;2.67;;
51082;SDS011;37131;42.694;23.350;2022-10-16T06:36:35;5.00;;;2.25;;
51082;SDS011;37131;42.694;23.350;2022-10-16T06:39:02;5.55;;;2.50;;
51082;SDS011;37131;42.694;23.350;2022-10-16T06:41:28;4.65;;;2.20;;
51082;SDS011;37131;42.694;23.350;2022-10-16T06:43:53;5.82;;;2.03;;
51082;SDS011;37131;42.694;23.350;2022-10-16T06:46:20;13.95;;;3.03;;
51082;SDS011;37131;42.694;23.350;2022-10-16T06:48:47;7.78;;;2.08;;
51082;SDS011;37131;42.694;23.350;2022-10-16T06:51:20;5.22;;;2.38;;
51082;SDS011;37131;42.694;23.350;2022-10-16T06:53:48;10.95;;;2.78;;
51082;SDS011;37131;42.694;23.350;2022-10-16T06:56:16;12.73;;;4.43;;
51082;SDS011;37131;42.694;23.350;2022-10-16T06:58:44;7.00;;;2.42;;
51082;SDS011;37131;42.694;23.350;2022-10-16T07:01:11;5.75;;;2.53;;
51082;SDS011;37131;42.694;23.350;2022-10-16T07:03:41;5.82;;;2.15;;
51082;SDS011;37131;42.694;23.350;2022-10-16T07:06:08;5.35;;;2.75;;
51082;SDS011;37131;42.694;23.350;2022-10-16T07:08:35;4.65;;;2.22;;
51082;SDS011;37131;42.694;23.350;2022-10-16T07:11:07;5.63;;;2.15;;
51082;SDS011;37131;42.694;23.350;2022-10-16T07:13:35;5.35;;;2.13;;
51082;SDS011;37131;42.694;23.350;2022-10-16T07:16:07;4.88;;;2.20;;
51082;SDS011;37131;42.694;23.350;2022-10-16T07:18:37;7.70;;;2.75;;
51082;SDS011;37131;42.694;23.350;2022-10-16T07:21:11;7.72;;;2.42;;
51082;SDS011;37131;42.694;23.350;2022-10-16T07:23:39;9.43;;;2.17;;
51082;SDS011;37131;42.694;23.350;2022-10-16T07:26:04;6.05;;;1.85;;
51082;SDS011;37131;42.694;23.350;2022-10-16T07:28:31;5.15;;;2.33;;
51082;SDS011;37131;42.694;23.350;2022-10-16T07:31:07;4.65;;;2.13;;
51082;SDS011;37131;42.694;23.350;2022-10-16T07:33:35;4.57;;;1.88;;
51082;SDS011;37131;42.694;23.350;2022-10-16T07:36:01;7.40;;;2.47;;
51082;SDS011;37131;42.694;23.350;2022-10-16T07:38:26;5.80;;;2.20;;
51082;SDS011;37131;42.694;23.350;2022-10-16T07:40:59;12.63;;;2.72;;
51082;SDS011;37131;42.694;23.350;2022-10-16T07:43:26;3.80;;;1.85;;
51082;SDS011;37131;42.694;23.350;2022-10-16T07:45:52;4.75;;;2.03;;
51082;SDS011;37131;42.694;23.350;2022-10-16T07:48:19;5.88;;;2.00;;
51082;SDS011;37131;42.694;23.350;2022-10-16T07:50:45;3.33;;;1.60;;
51082;SDS011;37131;42.694;23.350;2022-10-16T07:53:10;5.50;;;1.95;;
51082;SDS011;37131;42.694;23.350;2022-10-16T07:55:37;2.78;;;1.50;;
51082;SDS011;37131;42.694;23.350;2022-10-16T07:58:02;3.38;;;1.73;;
51082;SDS011;37131;42.694;23.350;2022-10-16T08:00:28;3.78;;;1.83;;
51082;SDS011;37131;42.694;23.350;2022-10-16T08:02:53;4.50;;;1.80;;
51082;SDS011;37131;42.694;23.350;2022-10-16T08:05:19;3.17;;;1.48;;
51082;SDS011;37131;42.694;23.350;2022-10-16T08:07:50;3.95;;;1.58;;
51082;SDS011;37131;42.694;23.350;2022-10-16T08:10:20;3.63;;;1.50;;
51082;SDS011;37131;42.694;23.350;2022-10-16T08:12:47;3.75;;;1.52;;
51082;SDS011;37131;42.694;23.350;2022-10-16T08:15:12;3.35;;;1.70;;
51082;SDS011;37131;42.694;23.350;2022-10-16T08:17:38;5.45;;;2.20;;
51082;SDS011;37131;42.694;23.350;2022-10-16T08:20:04;4.25;;;1.55;;
51082;SDS011;37131;42.694;23.350;2022-10-16T08:22:30;11.63;;;3.10;;
51082;SDS011;37131;42.694;23.350;2022-10-16T08:24:56;8.25;;;3.00;;
51082;SDS011;37131;42.694;23.350;2022-10-16T08:27:21;4.88;;;2.30;;
51082;SDS011;37131;42.694;23.350;2022-10-16T08:29:48;4.43;;;2.00;;
51082;SDS011;37131;42.694;23.350;2022-10-16T08:32:14;6.93;;;2.20;;
51082;SDS011;37131;42.694;23.350;2022-10-16T08:34:39;4.30;;;1.92;;
51082;SDS011;37131;42.694;23.350;2022-10-16T08:37:05;2.60;;;1.75;;
51082;SDS011;37131;42.694;23.350;2022-10-16T08:39:32;3.85;;;1.70;;
51082;SDS011;37131;42.694;23.350;2022-10-16T08:45:10;5.18;;;1.30;;
51082;SDS011;37131;42.694;23.350;2022-10-16T08:50:14;4.03;;;1.23;;
51082;SDS011;37131;42.694;23.350;2022-10-16T08:52:47;3.20;;;1.83;;
51082;SDS011;37131;42.694;23.350;2022-10-16T08:55:48;2.22;;;1.10;;
51082;SDS011;37131;42.694;23.350;2022-10-16T08:58:11;1.80;;;0.70;;
51082;SDS011;37131;42.694;23.350;2022-10-16T09:00:39;3.05;;;1.05;;
51082;SDS011;37131;42.694;23.350;2022-10-16T09:03:17;2.20;;;1.27;;
51082;SDS011;37131;42.694;23.350;2022-10-16T09:05:57;1.80;;;0.73;;
51082;SDS011;37131;42.694;23.350;2022-10-16T09:16:36;3.03;;;1.25;;
51082;SDS011;37131;42.694;23.350;2022-10-16T09:21:47;2.30;;;0.98;;
51082;SDS011;37131;42.694;23.350;2022-10-16T09:26:43;2.00;;;0.70;;
51082;SDS011;37131;42.694;23.350;2022-10-16T09:29:17;2.03;;;1.00;;
51082;SDS011;37131;42.694;23.350;2022-10-16T09:31:46;2.08;;;0.88;;
51082;SDS011;37131;42.694;23.350;2022-10-16T09:36:44;4.63;;;1.10;;
51082;SDS011;37131;42.694;23.350;2022-10-16T09:39:11;2.40;;;0.90;;
51082;SDS011;37131;42.694;23.350;2022-10-16T09:41:37;1.75;;;0.77;;
51082;SDS011;37131;42.694;23.350;2022-10-16T09:44:05;1.95;;;0.80;;
51082;SDS011;37131;42.694;23.350;2022-10-16T09:47:00;1.80;;;0.80;;
51082;SDS011;37131;42.694;23.350;2022-10-16T09:49:38;2.95;;;0.90;;
51082;SDS011;37131;42.694;23.350;2022-10-16T09:52:11;2.50;;;0.93;;
51082;SDS011;37131;42.694;23.350;2022-10-16T09:54:48;1.50;;;0.80;;
51082;SDS011;37131;42.694;23.350;2022-10-16T09:57:18;2.35;;;0.70;;
51082;SDS011;37131;42.694;23.350;2022-10-16T09:59:51;2.47;;;1.00;;
51082;SDS011;37131;42.694;23.350;2022-10-16T10:02:19;2.00;;;1.10;;
51082;SDS011;37131;42.694;23.350;2022-10-16T10:04:53;3.42;;;1.20;;
51082;SDS011;37131;42.694;23.350;2022-10-16T10:09:59;1.85;;;0.65;;
51082;SDS011;37131;42.694;23.350;2022-10-16T10:12:29;1.58;;;0.75;;
51082;SDS011;37131;42.694;23.350;2022-10-16T10:15:06;2.95;;;1.00;;
51082;SDS011;37131;42.694;23.350;2022-10-16T10:17:44;1.30;;;0.70;;
51082;SDS011;37131;42.694;23.350;2022-10-16T10:20:15;1.58;;;0.85;;
51082;SDS011;37131;42.694;23.350;2022-10-16T10:22:49;1.35;;;0.70;;
51082;SDS011;37131;42.694;23.350;2022-10-16T10:30:59;4.18;;;1.02;;
51082;SDS011;37131;42.694;23.350;2022-10-16T10:33:42;1.88;;;1.00;;
51082;SDS011;37131;42.694;23.350;2022-10-16T10:38:51;2.65;;;0.75;;
51082;SDS011;37131;42.694;23.350;2022-10-16T10:54:48;1.65;;;1.05;;
51082;SDS011;37131;42.694;23.350;2022-10-16T10:57:29;2.10;;;0.75;;
51082;SDS011;37131;42.694;23.350;2022-10-16T11:05:49;0.82;;;0.47;;
51082;SDS011;37131;42.694;23.350;2022-10-16T11:10:58;3.50;;;1.05;;
51082;SDS011;37131;42.694;23.350;2022-10-16T11:16:42;2.03;;;0.70;;
51082;SDS011;37131;42.694;23.350;2022-10-16T11:19:20;1.13;;;0.65;;
51082;SDS011;37131;42.694;23.350;2022-10-16T11:21:59;1.63;;;0.80;;
51082;SDS011;37131;42.694;23.350;2022-10-16T11:27:36;2.92;;;0.80;;
51082;SDS011;37131;42.694;23.350;2022-10-16T11:30:06;1.98;;;0.70;;
51082;SDS011;37131;42.694;23.350;2022-10-16T11:46:40;1.20;;;0.60;;
51082;SDS011;37131;42.694;23.350;2022-10-16T11:49:12;1.65;;;0.75;;
51082;SDS011;37131;42.694;23.350;2022-10-16T11:51:43;1.42;;;0.80;;
51082;SDS011;37131;42.694;23.350;2022-10-16T11:54:35;0.63;;;0.50;;
51082;SDS011;37131;42.694;23.350;2022-10-16T11:57:10;1.05;;;0.57;;
51082;SDS011;37131;42.694;23.350;2022-10-16T12:00:04;7.70;;;0.80;;
51082;SDS011;37131;42.694;23.350;2022-10-16T12:05:10;1.58;;;0.70;;
51082;SDS011;37131;42.694;23.350;2022-10-16T12:07:47;2.90;;;0.80;;
51082;SDS011;37131;42.694;23.350;2022-10-16T12:10:25;1.58;;;0.70;;
51082;SDS011;37131;42.694;23.350;2022-10-16T12:12:53;3.05;;;0.57;;
51082;SDS011;37131;42.694;23.350;2022-10-16T12:15:21;2.08;;;0.75;;
51082;SDS011;37131;42.694;23.350;2022-10-16T12:17:54;2.67;;;0.82;;
51082;SDS011;37131;42.694;23.350;2022-10-16T12:20:25;2.40;;;0.70;;
51082;SDS011;37131;42.694;23.350;2022-10-16T12:22:56;1.77;;;0.90;;
51082;SDS011;37131;42.694;23.350;2022-10-16T12:25:53;1.48;;;0.70;;
51082;SDS011;37131;42.694;23.350;2022-10-16T12:28:20;1.13;;;0.50;;
51082;SDS011;37131;42.694;23.350;2022-10-16T12:30:54;1.33;;;0.70;;
51082;SDS011;37131;42.694;23.350;2022-10-16T12:35:52;1.65;;;0.77;;
51082;SDS011;37131;42.694;23.350;2022-10-16T12:40:56;1.85;;;0.75;;
51082;SDS011;37131;42.694;23.350;2022-10-16T12:46:39;1.75;;;0.60;;
51082;SDS011;37131;42.694;23.350;2022-10-16T12:48:46;1.05;;;0.63;;
51082;SDS011;37131;42.694;23.350;2022-10-16T12:54:00;2.35;;;0.75;;
51082;SDS011;37131;42.694;23.350;2022-10-16T12:59:16;1.45;;;0.50;;
51082;SDS011;37131;42.694;23.350;2022-10-16T13:16:02;1.73;;;0.50;;
51082;SDS011;37131;42.694;23.350;2022-10-16T13:21:30;2.08;;;0.70;;
51082;SDS011;37131;42.694;23.350;2022-10-16T13:27:03;1.35;;;0.70;;
51082;SDS011;37131;42.694;23.350;2022-10-16T13:29:40;1.73;;;0.70;;
51082;SDS011;37131;42.694;23.350;2022-10-16T13:32:07;2.33;;;0.77;;
51082;SDS011;37131;42.694;23.350;2022-10-16T13:34:43;2.33;;;0.60;;
51082;SDS011;37131;42.694;23.350;2022-10-16T13:37:22;2.45;;;0.77;;
51082;SDS011;37131;42.694;23.350;2022-10-16T13:39:50;1.27;;;0.60;;
51082;SDS011;37131;42.694;23.350;2022-10-16T13:44:52;0.68;;;0.30;;
51082;SDS011;37131;42.694;23.350;2022-10-16T13:53:02;1.33;;;0.52;;
51082;SDS011;37131;42.694;23.350;2022-10-16T13:55:39;1.25;;;0.63;;
51082;SDS011;37131;42.694;23.350;2022-10-16T13:58:10;0.98;;;0.40;;
51082;SDS011;37131;42.694;23.350;2022-10-16T14:00:37;1.75;;;0.50;;
51082;SDS011;37131;42.694;23.350;2022-10-16T14:03:04;2.25;;;0.65;;
51082;SDS011;37131;42.694;23.350;2022-10-16T14:05:47;2.15;;;0.52;;
51082;SDS011;37131;42.694;23.350;2022-10-16T14:08:14;0.70;;;0.30;;
51082;SDS011;37131;42.694;23.350;2022-10-16T14:10:40;0.82;;;0.52;;
51082;SDS011;37131;42.694;23.350;2022-10-16T14:13:06;0.68;;;0.40;;
51082;SDS011;37131;42.694;23.350;2022-10-16T14:15:38;1.42;;;0.50;;
51082;SDS011;37131;42.694;23.350;2022-10-16T14:18:03;1.20;;;0.70;;
51082;SDS011;37131;42.694;23.350;2022-10-16T14:20:33;1.00;;;0.60;;
51082;SDS011;37131;42.694;23.350;2022-10-16T14:23:00;2.65;;;0.50;;
51082;SDS011;37131;42.694;23.350;2022-10-16T14:25:30;1.23;;;0.40;;
51082;SDS011;37131;42.694;23.350;2022-10-16T14:30:30;2.05;;;0.60;;
51082;SDS011;37131;42.694;23.350;2022-10-16T14:32:59;0.60;;;0.40;;
51082;SDS011;37131;42.694;23.350;2022-10-16T14:37:53;1.17;;;0.45;;
51082;SDS011;37131;42.694;23.350;2022-10-16T14:40:20;1.20;;;0.50;;
51082;SDS011;37131;42.694;23.350;2022-10-16T14:42:49;0.63;;;0.30;;
51082;SDS011;37131;42.694;23.350;2022-10-16T14:45:18;1.45;;;0.50;;
51082;SDS011;37131;42.694;23.350;2022-10-16T14:47:56;0.70;;;0.60;;
51082;SDS011;37131;42.694;23.350;2022-10-16T14:50:23;1.00;;;0.50;;
51082;SDS011;37131;42.694;23.350;2022-10-16T14:52:49;1.10;;;0.43;;
51082;SDS011;37131;42.694;23.350;2022-10-16T14:55:14;1.05;;;0.43;;
51082;SDS011;37131;42.694;23.350;2022-10-16T14:57:40;0.98;;;0.50;;
51082;SDS011;37131;42.694;23.350;2022-10-16T15:00:25;1.83;;;0.60;;
51082;SDS011;37131;42.694;23.350;2022-10-16T15:02:51;1.45;;;0.80;;
51082;SDS011;37131;42.694;23.350;2022-10-16T15:07:42;1.92;;;0.50;;
51082;SDS011;37131;42.694;23.350;2022-10-16T15:10:08;1.65;;;0.68;;
51082;SDS011;37131;42.694;23.350;2022-10-16T15:12:34;2.40;;;0.80;;
51082;SDS011;37131;42.694;23.350;2022-10-16T15:14:59;1.27;;;0.50;;
51082;SDS011;37131;42.694;23.350;2022-10-16T15:17:25;1.27;;;0.60;;
51082;SDS011;37131;42.694;23.350;2022-10-16T15:19:50;1.13;;;0.47;;
51082;SDS011;37131;42.694;23.350;2022-10-16T15:22:16;1.05;;;0.50;;
51082;SDS011;37131;42.694;23.350;2022-10-16T15:24:42;0.90;;;0.50;;
51082;SDS011;37131;42.694;23.350;2022-10-16T15:27:07;1.60;;;0.75;;
51082;SDS011;37131;42.694;23.350;2022-10-16T15:29:33;1.77;;;0.73;;
51082;SDS011;37131;42.694;23.350;2022-10-16T15:31:58;2.55;;;0.60;;
51082;SDS011;37131;42.694;23.350;2022-10-16T15:34:23;1.23;;;0.70;;
51082;SDS011;37131;42.694;23.350;2022-10-16T15:36:49;5.40;;;1.10;;
51082;SDS011;37131;42.694;23.350;2022-10-16T15:39:16;1.30;;;0.63;;
51082;SDS011;37131;42.694;23.350;2022-10-16T15:41:43;1.88;;;0.80;;
51082;SDS011;37131;42.694;23.350;2022-10-16T15:44:12;1.98;;;0.68;;
51082;SDS011;37131;42.694;23.350;2022-10-16T15:46:38;2.08;;;0.65;;
51082;SDS011;37131;42.694;23.350;2022-10-16T15:49:03;3.95;;;0.93;;
51082;SDS011;37131;42.694;23.350;2022-10-16T15:51:29;1.40;;;0.57;;
51082;SDS011;37131;42.694;23.350;2022-10-16T15:53:57;0.82;;;0.43;;
51082;SDS011;37131;42.694;23.350;2022-10-16T15:56:24;3.38;;;1.17;;
51082;SDS011;37131;42.694;23.350;2022-10-16T15:58:51;1.40;;;0.73;;
51082;SDS011;37131;42.694;23.350;2022-10-16T16:01:16;1.38;;;0.60;;
51082;SDS011;37131;42.694;23.350;2022-10-16T16:03:42;1.83;;;0.80;;
51082;SDS011;37131;42.694;23.350;2022-10-16T16:06:08;3.20;;;0.70;;
51082;SDS011;37131;42.694;23.350;2022-10-16T16:08:35;2.30;;;0.75;;
51082;SDS011;37131;42.694;23.350;2022-10-16T16:11:02;1.42;;;0.68;;
51082;SDS011;37131;42.694;23.350;2022-10-16T16:13:30;1.65;;;0.80;;
51082;SDS011;37131;42.694;23.350;2022-10-16T16:15:55;3.15;;;1.25;;
51082;SDS011;37131;42.694;23.350;2022-10-16T16:18:21;2.00;;;1.10;;
51082;SDS011;37131;42.694;23.350;2022-10-16T16:20:47;3.03;;;1.20;;
51082;SDS011;37131;42.694;23.350;2022-10-16T16:23:13;5.90;;;0.88;;
51082;SDS011;37131;42.694;23.350;2022-10-16T16:25:38;2.65;;;1.23;;
51082;SDS011;37131;42.694;23.350;2022-10-16T16:28:04;2.08;;;1.05;;
51082;SDS011;37131;42.694;23.350;2022-10-16T16:30:29;4.30;;;1.35;;
51082;SDS011;37131;42.694;23.350;2022-10-16T16:32:55;4.40;;;0.88;;
51082;SDS011;37131;42.694;23.350;2022-10-16T16:35:20;5.85;;;1.15;;
51082;SDS011;37131;42.694;23.350;2022-10-16T16:37:46;2.28;;;0.90;;
51082;SDS011;37131;42.694;23.350;2022-10-16T16:40:12;3.67;;;1.05;;
51082;SDS011;37131;42.694;23.350;2022-10-16T16:42:38;6.10;;;1.45;;
51082;SDS011;37131;42.694;23.350;2022-10-16T16:45:03;2.90;;;1.17;;
51082;SDS011;37131;42.694;23.350;2022-10-16T16:47:29;3.38;;;1.20;;
51082;SDS011;37131;42.694;23.350;2022-10-16T16:49:55;2.97;;;0.90;;
51082;SDS011;37131;42.694;23.350;2022-10-16T16:52:20;2.80;;;1.02;;
51082;SDS011;37131;42.694;23.350;2022-10-16T16:54:46;2.30;;;1.00;;
51082;SDS011;37131;42.694;23.350;2022-10-16T16:57:16;5.47;;;1.70;;
51082;SDS011;37131;42.694;23.350;2022-10-16T16:59:45;4.57;;;1.20;;
51082;SDS011;37131;42.694;23.350;2022-10-16T17:02:10;4.35;;;1.30;;